Time;durP1;ratioP1;P1;durP2;ratioP2;P2;SDS_P1;SDS_P2;PMS_P1;PMS_P2;Temp;Humidity;BMP_temperature;BMP_pressure;BME280_temperature;BME280_humidity;BME280_pressure;Samples;Min_cycle;Max_cycle;Signal;HPM_P1;HPM_P2
2022/12/31 00:01:52;;;;;;;0.43;0.43;;;;;;;;;;5085060;28;20063;-79
2022/12/31 00:04:19;;;;;;;2.42;0.40;;;;;;;;;;5077159;28;20048;-79
2022/12/31 00:06:46;;;;;;;0.55;0.40;;;;;;;;;;5068086;28;20542;-78
2022/12/31 00:09:12;;;;;;;0.82;0.50;;;;;;;;;;5090299;28;20105;-78
2022/12/31 00:11:39;;;;;;;0.68;0.30;;;;;;;;;;5094309;28;20055;-79
2022/12/31 00:14:06;;;;;;;0.32;0.30;;;;;;;;;;5059773;28;20052;-79
2022/12/31 00:16:36;;;;;;;0.85;0.32;;;;;;;;;;5089172;28;20525;-79
2022/12/31 00:19:04;;;;;;;0.88;0.35;;;;;;;;;;5061320;28;20112;-80
2022/12/31 00:21:32;;;;;;;0.50;0.43;;;;;;;;;;5060524;28;20068;-80
2022/12/31 00:24:00;;;;;;;0.55;0.38;;;;;;;;;;5094750;28;20079;-80
2022/12/31 00:26:28;;;;;;;0.43;0.30;;;;;;;;;;5076933;28;20146;-78
2022/12/31 00:28:56;;;;;;;1.40;0.65;;;;;;;;;;5072554;28;20067;-78
2022/12/31 00:31:26;;;;;;;0.32;0.32;;;;;;;;;;5094163;28;20135;-79
2022/12/31 00:33:55;;;;;;;0.70;0.40;;;;;;;;;;5077356;28;20139;-80
2022/12/31 00:36:28;;;;;;;0.30;0.30;;;;;;;;;;5067626;28;20645;-80
2022/12/31 00:38:55;;;;;;;;;;;;;;;;;;5089439;28;20074;-79
2022/12/31 00:41:22;;;;;;;0.60;0.30;;;;;;;;;;5076890;28;20007;-79
2022/12/31 00:43:49;;;;;;;0.35;0.35;;;;;;;;;;5069837;28;20135;-79
2022/12/31 00:46:17;;;;;;;0.50;0.40;;;;;;;;;;5093822;28;20503;-78
2022/12/31 00:48:44;;;;;;;0.40;0.40;;;;;;;;;;5047614;28;20040;-78
2022/12/31 00:51:13;;;;;;;0.30;0.20;;;;;;;;;;5075210;28;20465;-77
2022/12/31 00:53:40;;;;;;;1.00;0.60;;;;;;;;;;5081616;28;20583;-78
2022/12/31 00:56:12;;;;;;;1.17;0.22;;;;;;;;;;5093310;28;20052;-78
2022/12/31 00:58:39;;;;;;;0.35;0.30;;;;;;;;;;5101931;28;20048;-79
2022/12/31 01:01:21;;;;;;;1.08;0.40;;;;;;;;;;5070110;28;20072;-80
2022/12/31 01:03:49;;;;;;;2.13;0.63;;;;;;;;;;5079690;28;20532;-80
2022/12/31 01:06:16;;;;;;;1.08;0.47;;;;;;;;;;5078716;28;20116;-80
2022/12/31 01:08:43;;;;;;;0.50;0.32;;;;;;;;;;5074299;28;20103;-79
2022/12/31 01:11:23;;;;;;;1.58;0.30;;;;;;;;;;5077753;28;20094;-80
2022/12/31 01:14:02;;;;;;;0.50;0.40;;;;;;;;;;5078066;28;20076;-79
2022/12/31 01:16:35;;;;;;;2.22;0.60;;;;;;;;;;5094734;28;20040;-79
2022/12/31 01:19:03;;;;;;;;;;;;;;;;;;5052448;28;20083;-80
2022/12/31 01:21:30;;;;;;;2.08;1.33;;;;;;;;;;5094191;28;19920;-77
2022/12/31 01:23:58;;;;;;;1.25;0.57;;;;;;;;;;5073814;28;20519;-78
2022/12/31 01:26:25;;;;;;;0.43;0.43;;;;;;;;;;5054013;28;20052;-77
2022/12/31 01:28:52;;;;;;;0.65;0.43;;;;;;;;;;5067773;28;20526;-77
2022/12/31 01:31:20;;;;;;;0.35;0.30;;;;;;;;;;5074005;28;20064;-77
2022/12/31 01:33:47;;;;;;;0.45;0.30;;;;;;;;;;5054888;28;20444;-78
2022/12/31 01:36:20;;;;;;;1.38;0.40;;;;;;;;;;5048594;28;20063;-78
2022/12/31 01:38:51;;;;;;;1.48;0.40;;;;;;;;;;5055355;28;20058;-77
2022/12/31 01:41:22;;;;;;;0.52;0.52;;;;;;;;;;5097426;28;20048;-78
2022/12/31 01:43:56;;;;;;;1.05;0.40;;;;;;;;;;5082655;28;20055;-77
2022/12/31 01:46:28;;;;;;;0.80;0.60;;;;;;;;;;5108733;28;20390;-77
2022/12/31 01:48:59;;;;;;;1.70;0.63;;;;;;;;;;5106662;28;20047;-77
2022/12/31 01:51:26;;;;;;;0.38;0.38;;;;;;;;;;5091453;28;20602;-77
2022/12/31 01:53:53;;;;;;;1.45;0.47;;;;;;;;;;5075273;28;20108;-77
2022/12/31 01:56:20;;;;;;;0.95;0.35;;;;;;;;;;5074208;28;20082;-78
2022/12/31 01:58:47;;;;;;;0.68;0.60;;;;;;;;;;5057059;28;20161;-77
2022/12/31 02:01:19;;;;;;;0.65;0.40;;;;;;;;;;5090375;28;20047;-77
2022/12/31 02:03:46;;;;;;;2.27;0.50;;;;;;;;;;5080267;28;20055;-78
2022/12/31 02:06:24;;;;;;;1.95;0.65;;;;;;;;;;5054798;28;20139;-77
2022/12/31 02:08:50;;;;;;;0.68;0.32;;;;;;;;;;5082977;28;20080;-78
2022/12/31 02:11:30;;;;;;;0.45;0.43;;;;;;;;;;5056627;28;20512;-78
2022/12/31 02:14:05;;;;;;;0.80;0.47;;;;;;;;;;5087851;28;20154;-78
2022/12/31 02:17:00;;;;;;;0.50;0.40;;;;;;;;;;5066848;28;20455;-77
2022/12/31 02:19:45;;;;;;;2.38;0.43;;;;;;;;;;5069206;28;20131;-77
2022/12/31 02:22:30;;;;;;;2.35;0.77;;;;;;;;;;5088680;28;20468;-77
2022/12/31 02:25:20;;;;;;;1.38;0.60;;;;;;;;;;5078190;28;20056;-77
2022/12/31 02:28:07;;;;;;;0.47;0.47;;;;;;;;;;5078088;28;20131;-77
2022/12/31 02:30:34;;;;;;;1.13;0.55;;;;;;;;;;5078872;28;20109;-77
2022/12/31 02:33:04;;;;;;;2.15;0.57;;;;;;;;;;5078808;28;20450;-77
2022/12/31 02:35:40;;;;;;;1.13;0.50;;;;;;;;;;5088101;28;20155;-77
2022/12/31 02:38:12;;;;;;;1.27;0.40;;;;;;;;;;5075453;28;20137;-78
2022/12/31 02:40:39;;;;;;;1.10;0.55;;;;;;;;;;5053545;28;20054;-78
2022/12/31 02:43:06;;;;;;;0.40;0.40;;;;;;;;;;5055109;28;20140;-78
2022/12/31 02:45:41;;;;;;;1.48;0.38;;;;;;;;;;5063292;28;20058;-79
2022/12/31 02:48:21;;;;;;;0.55;0.38;;;;;;;;;;5072584;28;20052;-79
2022/12/31 02:51:19;;;;;;;0.52;0.47;;;;;;;;;;5085732;28;20079;-77
2022/12/31 02:53:52;;;;;;;0.82;0.40;;;;;;;;;;5077671;28;21276;-80
2022/12/31 02:56:37;;;;;;;0.38;0.35;;;;;;;;;;5067494;28;20064;-79
2022/12/31 03:02:13;;;;;;;1.90;0.50;;;;;;;;;;5081528;28;20056;-78
2022/12/31 03:04:54;;;;;;;0.57;0.43;;;;;;;;;;5066086;28;20121;-79
2022/12/31 03:07:26;;;;;;;0.80;0.40;;;;;;;;;;5074283;28;20125;-79
2022/12/31 03:09:53;;;;;;;0.35;0.35;;;;;;;;;;5052282;28;20052;-78
2022/12/31 03:15:18;;;;;;;1.05;0.75;;;;;;;;;;5087272;28;20075;-79
2022/12/31 03:17:49;;;;;;;0.70;0.40;;;;;;;;;;5063910;28;20052;-79
2022/12/31 03:23:04;;;;;;;0.40;0.35;;;;;;;;;;5097246;28;20056;-79
2022/12/31 03:28:03;;;;;;;0.63;0.52;;;;;;;;;;5097189;28;20105;-78
2022/12/31 03:30:31;;;;;;;1.88;0.60;;;;;;;;;;5079282;28;20055;-78
2022/12/31 03:32:58;;;;;;;0.90;0.50;;;;;;;;;;5068713;28;20048;-78
2022/12/31 03:35:26;;;;;;;0.75;0.50;;;;;;;;;;5078218;28;20092;-78
2022/12/31 03:37:53;;;;;;;0.70;0.50;;;;;;;;;;5061594;28;20048;-79
2022/12/31 03:40:21;;;;;;;0.43;0.40;;;;;;;;;;5079074;28;20393;-77
2022/12/31 03:42:48;;;;;;;0.40;0.40;;;;;;;;;;5057072;28;20522;-77
2022/12/31 03:45:15;;;;;;;2.35;0.45;;;;;;;;;;5075671;28;20344;-77
2022/12/31 03:47:42;;;;;;;0.63;0.40;;;;;;;;;;5075658;28;20052;-77
2022/12/31 03:50:10;;;;;;;0.57;0.30;;;;;;;;;;5051263;28;20071;-78
2022/12/31 03:52:38;;;;;;;0.85;0.30;;;;;;;;;;5079046;28;20060;-78
2022/12/31 03:55:05;;;;;;;1.27;0.55;;;;;;;;;;5077631;28;20503;-78
2022/12/31 03:57:32;;;;;;;0.77;0.57;;;;;;;;;;5070197;28;20052;-77
2022/12/31 03:59:59;;;;;;;0.40;0.40;;;;;;;;;;5085464;28;20044;-78
2022/12/31 04:02:25;;;;;;;2.70;0.30;;;;;;;;;;5090439;28;20056;-78
2022/12/31 04:04:55;;;;;;;1.02;0.55;;;;;;;;;;5051999;28;20114;-79
2022/12/31 04:07:22;;;;;;;2.00;0.55;;;;;;;;;;5094856;28;20051;-79
2022/12/31 04:09:49;;;;;;;0.50;0.40;;;;;;;;;;5078216;28;20063;-78
2022/12/31 04:12:16;;;;;;;0.55;0.30;;;;;;;;;;5062215;28;20068;-78
2022/12/31 04:14:42;;;;;;;2.03;0.40;;;;;;;;;;5078159;28;20067;-78
2022/12/31 04:17:09;;;;;;;0.38;0.30;;;;;;;;;;5103775;28;20056;-78
2022/12/31 04:19:36;;;;;;;0.82;0.30;;;;;;;;;;5068063;28;20048;-78
2022/12/31 04:22:03;;;;;;;1.20;0.40;;;;;;;;;;5083437;28;20056;-78
2022/12/31 04:24:30;;;;;;;0.30;0.30;;;;;;;;;;5061243;28;20056;-77
2022/12/31 04:26:57;;;;;;;1.08;0.35;;;;;;;;;;5074708;28;20138;-78
2022/12/31 04:29:32;;;;;;;0.85;0.40;;;;;;;;;;5058868;28;20098;-77
2022/12/31 04:31:59;;;;;;;0.20;0.20;;;;;;;;;;5057632;28;20043;-77
2022/12/31 04:34:26;;;;;;;0.73;0.40;;;;;;;;;;5047217;28;20063;-78
2022/12/31 04:36:58;;;;;;;1.80;0.40;;;;;;;;;;5058359;28;20058;-77
2022/12/31 04:39:25;;;;;;;3.53;0.43;;;;;;;;;;5095942;28;20050;-78
2022/12/31 04:41:53;;;;;;;0.50;0.40;;;;;;;;;;5096807;28;20052;-78
2022/12/31 04:44:20;;;;;;;1.05;0.30;;;;;;;;;;5094839;28;20553;-78
2022/12/31 04:46:47;;;;;;;1.52;0.47;;;;;;;;;;5095057;28;20048;-78
2022/12/31 04:49:13;;;;;;;2.70;0.50;;;;;;;;;;5095377;28;20052;-78
2022/12/31 04:51:40;;;;;;;0.73;0.50;;;;;;;;;;5078070;28;20131;-78
2022/12/31 04:54:07;;;;;;;0.47;0.40;;;;;;;;;;5098834;28;20670;-78
2022/12/31 04:56:35;;;;;;;0.30;0.30;;;;;;;;;;5077590;28;20381;-78
2022/12/31 04:59:03;;;;;;;0.52;0.50;;;;;;;;;;5103946;28;20048;-77
2022/12/31 05:01:31;;;;;;;0.32;0.30;;;;;;;;;;5064704;28;20048;-77
2022/12/31 05:03:59;;;;;;;2.50;0.40;;;;;;;;;;5048246;28;20055;-77
2022/12/31 05:06:25;;;;;;;0.47;0.30;;;;;;;;;;5062789;28;20056;-77
2022/12/31 05:08:53;;;;;;;0.95;0.30;;;;;;;;;;5089065;28;20043;-78
2022/12/31 05:11:19;;;;;;;1.58;0.40;;;;;;;;;;5070569;28;20056;-80
2022/12/31 05:13:46;;;;;;;1.85;0.40;;;;;;;;;;5074735;28;20058;-80
2022/12/31 05:16:14;;;;;;;1.05;0.30;;;;;;;;;;5059801;28;20158;-80
2022/12/31 05:18:41;;;;;;;1.08;0.50;;;;;;;;;;5076648;28;20048;-79
2022/12/31 05:21:09;;;;;;;1.42;0.28;;;;;;;;;;5061727;28;20506;-79
2022/12/31 05:23:35;;;;;;;0.55;0.43;;;;;;;;;;5058881;28;20048;-79
2022/12/31 05:26:03;;;;;;;0.85;0.50;;;;;;;;;;5090240;28;20044;-79
2022/12/31 05:28:31;;;;;;;1.65;0.32;;;;;;;;;;5091594;28;20039;-79
2022/12/31 05:30:59;;;;;;;0.55;0.47;;;;;;;;;;5095089;28;20454;-79
2022/12/31 05:33:26;;;;;;;0.40;0.30;;;;;;;;;;5095534;28;20056;-79
2022/12/31 05:35:53;;;;;;;0.30;0.30;;;;;;;;;;5070802;28;20083;-79
2022/12/31 05:38:20;;;;;;;0.40;0.40;;;;;;;;;;5053448;28;20074;-79
2022/12/31 05:40:47;;;;;;;0.98;0.30;;;;;;;;;;5069254;28;20045;-79
2022/12/31 05:43:14;;;;;;;1.75;0.38;;;;;;;;;;5072433;28;20051;-79
2022/12/31 05:45:40;;;;;;;0.50;0.43;;;;;;;;;;5058947;28;20054;-79
2022/12/31 05:48:08;;;;;;;0.50;0.50;;;;;;;;;;5104724;28;20087;-79
2022/12/31 05:50:34;;;;;;;3.25;0.40;;;;;;;;;;5092551;28;20097;-76
2022/12/31 05:53:02;;;;;;;0.55;0.30;;;;;;;;;;5090125;28;20090;-78
2022/12/31 05:55:28;;;;;;;0.20;0.20;;;;;;;;;;5069622;28;20110;-77
2022/12/31 05:57:55;;;;;;;0.50;0.28;;;;;;;;;;5070311;28;20062;-77
2022/12/31 06:00:22;;;;;;;0.80;0.80;;;;;;;;;;5055198;28;20495;-78
2022/12/31 06:02:49;;;;;;;0.95;0.40;;;;;;;;;;5072203;28;20131;-77
2022/12/31 06:05:16;;;;;;;0.50;0.30;;;;;;;;;;5084865;28;20056;-77
2022/12/31 06:07:51;;;;;;;0.95;0.30;;;;;;;;;;5065177;28;20132;-77
2022/12/31 06:10:17;;;;;;;1.23;0.30;;;;;;;;;;5090689;28;20052;-78
2022/12/31 06:12:44;;;;;;;0.55;0.20;;;;;;;;;;5061545;28;20055;-79
2022/12/31 06:15:11;;;;;;;0.47;0.47;;;;;;;;;;5082230;28;20049;-79
2022/12/31 06:17:38;;;;;;;0.95;0.40;;;;;;;;;;5075233;28;20060;-78
2022/12/31 06:20:05;;;;;;;0.43;0.28;;;;;;;;;;5095412;28;20051;-79
2022/12/31 06:22:38;;;;;;;0.50;0.40;;;;;;;;;;5090696;28;20060;-79
2022/12/31 06:25:05;;;;;;;1.55;0.38;;;;;;;;;;5092022;28;20044;-79
2022/12/31 06:27:32;;;;;;;0.43;0.22;;;;;;;;;;5074334;28;20050;-82
2022/12/31 06:29:59;;;;;;;0.50;0.30;;;;;;;;;;5058257;28;20052;-79
2022/12/31 06:32:26;;;;;;;0.40;0.30;;;;;;;;;;5081510;28;20459;-82
2022/12/31 06:34:53;;;;;;;0.60;0.38;;;;;;;;;;5075586;28;20051;-83
2022/12/31 06:37:19;;;;;;;0.55;0.47;;;;;;;;;;5064155;28;20156;-86
2022/12/31 06:39:46;;;;;;;1.25;0.28;;;;;;;;;;5074187;28;20047;-86
2022/12/31 06:42:13;;;;;;;0.40;0.25;;;;;;;;;;5065712;28;20059;-79
2022/12/31 06:44:40;;;;;;;0.75;0.20;;;;;;;;;;5093641;28;20052;-80
2022/12/31 06:47:06;;;;;;;0.60;0.40;;;;;;;;;;5087838;28;20056;-79
2022/12/31 06:49:33;;;;;;;0.10;0.10;;;;;;;;;;5075336;28;20054;-85
2022/12/31 06:52:00;;;;;;;0.30;0.30;;;;;;;;;;5073755;28;20056;-84
2022/12/31 06:54:27;;;;;;;0.77;0.20;;;;;;;;;;5072431;28;20080;-83
2022/12/31 06:56:54;;;;;;;0.60;0.40;;;;;;;;;;5072136;28;20048;-83
2022/12/31 06:59:23;;;;;;;1.75;0.40;;;;;;;;;;5065322;28;20040;-84
2022/12/31 07:02:09;;;;;;;0.63;0.45;;;;;;;;;;5087510;28;20135;-85
2022/12/31 07:04:58;;;;;;;0.95;0.20;;;;;;;;;;5088807;28;20469;-83
2022/12/31 07:08:01;;;;;;;0.55;0.35;;;;;;;;;;5063887;28;20048;-83
2022/12/31 07:10:49;;;;;;;2.35;0.30;;;;;;;;;;5042941;28;20411;-83
2022/12/31 07:13:16;;;;;;;1.08;0.38;;;;;;;;;;5088920;28;20059;-83
2022/12/31 07:15:56;;;;;;;0.82;0.28;;;;;;;;;;5097527;28;20043;-83
2022/12/31 07:18:48;;;;;;;0.50;0.40;;;;;;;;;;5097142;28;20052;-83
2022/12/31 07:21:16;;;;;;;0.68;0.55;;;;;;;;;;5092034;28;20135;-83
2022/12/31 07:23:43;;;;;;;2.92;0.50;;;;;;;;;;5058253;28;20055;-81
2022/12/31 07:26:32;;;;;;;0.30;0.25;;;;;;;;;;5061974;28;20054;-87
2022/12/31 07:29:43;;;;;;;0.45;0.40;;;;;;;;;;5069700;28;20050;-81
2022/12/31 07:32:19;;;;;;;0.40;0.40;;;;;;;;;;5079985;28;20079;-76
2022/12/31 07:34:49;;;;;;;1.13;0.47;;;;;;;;;;5084516;28;20056;-82
2022/12/31 07:37:45;;;;;;;0.30;0.30;;;;;;;;;;5086797;28;20569;-82
2022/12/31 07:40:24;;;;;;;0.40;0.40;;;;;;;;;;5079477;28;20051;-82
2022/12/31 07:42:57;;;;;;;0.70;0.35;;;;;;;;;;5068829;28;20051;-82
2022/12/31 07:45:25;;;;;;;0.50;0.40;;;;;;;;;;5091377;28;20139;-82
2022/12/31 07:47:52;;;;;;;0.82;0.70;;;;;;;;;;5079886;28;20056;-82
2022/12/31 07:50:27;;;;;;;0.30;0.30;;;;;;;;;;5071589;28;20048;-82
2022/12/31 07:52:54;;;;;;;3.50;0.40;;;;;;;;;;5072059;28;20048;-82
2022/12/31 07:55:21;;;;;;;0.65;0.60;;;;;;;;;;5078450;28;20567;-82
2022/12/31 07:57:56;;;;;;;0.90;0.70;;;;;;;;;;5096934;28;20455;-82
2022/12/31 08:00:23;;;;;;;1.52;0.77;;;;;;;;;;5062998;28;20040;-82
2022/12/31 08:03:22;;;;;;;0.30;0.30;;;;;;;;;;5097714;28;20052;-82
2022/12/31 08:05:50;;;;;;;0.40;0.30;;;;;;;;;;5068390;28;20056;-82
2022/12/31 08:08:45;;;;;;;0.60;0.38;;;;;;;;;;5089900;28;20587;-80
2022/12/31 08:11:40;;;;;;;0.50;0.30;;;;;;;;;;5108213;28;20098;-81
2022/12/31 08:14:11;;;;;;;0.50;0.40;;;;;;;;;;5074497;28;20056;-83
2022/12/31 08:16:38;;;;;;;0.57;0.40;;;;;;;;;;5057580;28;20060;-82
2022/12/31 08:19:05;;;;;;;0.40;0.40;;;;;;;;;;5095082;28;20044;-82
2022/12/31 08:21:42;;;;;;;0.80;0.40;;;;;;;;;;5076008;28;20492;-82
2022/12/31 08:24:42;;;;;;;1.27;0.60;;;;;;;;;;5069408;28;20496;-82
2022/12/31 08:27:18;;;;;;;0.90;0.52;;;;;;;;;;5068359;28;20060;-81
2022/12/31 08:30:28;;;;;;;0.63;0.60;;;;;;;;;;5104588;28;20052;-80
2022/12/31 08:33:21;;;;;;;0.57;0.40;;;;;;;;;;5089666;28;20046;-80
2022/12/31 08:36:25;;;;;;;0.63;0.60;;;;;;;;;;5107777;28;20062;-81
2022/12/31 08:39:02;;;;;;;1.85;0.40;;;;;;;;;;5092420;28;20043;-81
2022/12/31 08:41:55;;;;;;;1.05;0.43;;;;;;;;;;5087813;28;20052;-80
2022/12/31 08:44:57;;;;;;;1.10;0.65;;;;;;;;;;5108788;28;20052;-80
2022/12/31 08:47:48;;;;;;;0.88;0.38;;;;;;;;;;5112439;28;20051;-80
2022/12/31 08:50:25;;;;;;;0.95;0.70;;;;;;;;;;5108275;28;20043;-80
2022/12/31 08:52:52;;;;;;;0.45;0.45;;;;;;;;;;5103944;28;20042;-79
2022/12/31 08:55:24;;;;;;;2.15;0.57;;;;;;;;;;5112449;28;20059;-82
2022/12/31 08:58:13;;;;;;;0.50;0.50;;;;;;;;;;5106734;28;20066;-76
2022/12/31 09:00:43;;;;;;;1.33;0.40;;;;;;;;;;5103918;28;20066;-80
2022/12/31 09:03:31;;;;;;;0.32;0.32;;;;;;;;;;5110570;28;20074;-81
2022/12/31 09:06:07;;;;;;;1.15;0.40;;;;;;;;;;5110531;28;20078;-81
2022/12/31 09:08:54;;;;;;;1.42;0.43;;;;;;;;;;5115333;28;20032;-81
2022/12/31 09:11:46;;;;;;;0.50;0.38;;;;;;;;;;5107375;28;20048;-79
2022/12/31 09:15:27;;;;;;;1.10;0.47;;;;;;;;;;5067745;28;20074;-81
2022/12/31 09:17:55;;;;;;;2.47;0.50;;;;;;;;;;5088400;28;20055;-78
2022/12/31 09:20:36;;;;;;;0.60;0.52;;;;;;;;;;5092108;28;20104;-78
2022/12/31 09:23:12;;;;;;;1.17;0.40;;;;;;;;;;5063579;28;20108;-81
2022/12/31 09:26:20;;;;;;;1.98;0.50;;;;;;;;;;5079077;28;20036;-81
2022/12/31 09:29:16;;;;;;;0.63;0.32;;;;;;;;;;5111680;28;20047;-80
2022/12/31 09:32:10;;;;;;;0.65;0.40;;;;;;;;;;5105939;28;20032;-79
2022/12/31 09:35:10;;;;;;;1.15;0.40;;;;;;;;;;5110871;28;20116;-80
2022/12/31 09:37:50;;;;;;;1.33;0.93;;;;;;;;;;5109621;28;20226;-80
2022/12/31 09:40:39;;;;;;;3.00;1.20;;;;;;;;;;5113833;28;20064;-80
2022/12/31 09:44:01;;;;;;;1.27;0.80;;;;;;;;;;5103475;28;20065;-82
2022/12/31 09:47:28;;;;;;;1.85;0.63;;;;;;;;;;5106796;28;20059;-81
2022/12/31 09:50:27;;;;;;;2.33;0.70;;;;;;;;;;5111615;28;20074;-80
2022/12/31 09:53:15;;;;;;;2.20;0.75;;;;;;;;;;5112110;28;20044;-81
2022/12/31 09:55:49;;;;;;;0.52;0.40;;;;;;;;;;5113628;28;20035;-81
2022/12/31 09:58:37;;;;;;;0.75;0.40;;;;;;;;;;5097708;28;20036;-80
2022/12/31 10:01:20;;;;;;;0.63;0.50;;;;;;;;;;5114534;28;20044;-79
2022/12/31 10:04:06;;;;;;;0.60;0.40;;;;;;;;;;5114799;28;20059;-80
2022/12/31 10:06:52;;;;;;;0.50;0.40;;;;;;;;;;5102058;28;20059;-79
2022/12/31 10:10:00;;;;;;;0.85;0.40;;;;;;;;;;5108446;28;20092;-82
2022/12/31 10:13:08;;;;;;;0.40;0.32;;;;;;;;;;5115039;28;20055;-82
2022/12/31 10:16:03;;;;;;;0.32;0.28;;;;;;;;;;5126459;28;20033;-82
2022/12/31 10:18:53;;;;;;;0.30;0.30;;;;;;;;;;5115573;28;20039;-83
2022/12/31 10:21:59;;;;;;;1.35;0.45;;;;;;;;;;5115336;28;20036;-83
2022/12/31 10:24:48;;;;;;;0.75;0.50;;;;;;;;;;5092330;28;20109;-83
2022/12/31 10:27:44;;;;;;;2.28;0.50;;;;;;;;;;5099058;28;20058;-85
2022/12/31 10:30:19;;;;;;;0.45;0.40;;;;;;;;;;5102015;28;20108;-83
2022/12/31 10:33:05;;;;;;;2.22;1.83;;;;;;;;;;5078095;28;20045;-79
2022/12/31 10:35:42;;;;;;;1.38;0.60;;;;;;;;;;5106695;28;20032;-77
2022/12/31 10:38:13;;;;;;;0.60;0.50;;;;;;;;;;5096262;28;20064;-83
2022/12/31 10:41:06;;;;;;;1.02;0.60;;;;;;;;;;5094774;28;20123;-79
2022/12/31 10:43:48;;;;;;;3.45;1.42;;;;;;;;;;5096457;28;20076;-79
2022/12/31 10:46:27;;;;;;;1.13;0.63;;;;;;;;;;5110329;28;20040;-79
2022/12/31 10:49:16;;;;;;;1.85;1.02;;;;;;;;;;5105336;28;20052;-81
2022/12/31 10:52:24;;;;;;;4.55;2.28;;;;;;;;;;5100114;28;20055;-80
2022/12/31 10:55:33;;;;;;;2.22;0.57;;;;;;;;;;5085797;28;20044;-81
2022/12/31 10:58:18;;;;;;;3.53;0.65;;;;;;;;;;5100000;28;20029;-81
2022/12/31 11:01:01;;;;;;;2.05;0.70;;;;;;;;;;5096898;28;20098;-82
2022/12/31 11:03:47;;;;;;;0.77;0.40;;;;;;;;;;5096084;28;20113;-82
2022/12/31 11:06:23;;;;;;;2.28;0.40;;;;;;;;;;5103203;28;20096;-82
2022/12/31 11:09:11;;;;;;;1.13;0.40;;;;;;;;;;5099837;28;20059;-83
2022/12/31 11:12:25;;;;;;;0.50;0.45;;;;;;;;;;5102660;28;20035;-82
2022/12/31 11:15:11;;;;;;;0.55;0.40;;;;;;;;;;5042326;28;20052;-82
2022/12/31 11:17:56;;;;;;;1.27;0.57;;;;;;;;;;5110840;28;20051;-80
2022/12/31 11:20:26;;;;;;;0.50;0.38;;;;;;;;;;5084118;28;20044;-80
2022/12/31 11:23:11;;;;;;;1.08;0.52;;;;;;;;;;5087679;28;20084;-81
2022/12/31 11:25:50;;;;;;;1.35;0.40;;;;;;;;;;5092412;28;20131;-80
2022/12/31 11:28:34;;;;;;;0.45;0.40;;;;;;;;;;5090541;28;20052;-78
2022/12/31 11:31:34;;;;;;;0.88;0.45;;;;;;;;;;5086438;28;20062;-84
2022/12/31 11:34:23;;;;;;;0.73;0.50;;;;;;;;;;5085299;28;20048;-77
2022/12/31 11:37:15;;;;;;;1.90;0.30;;;;;;;;;;5090181;28;20048;-79
2022/12/31 11:39:51;;;;;;;1.33;0.60;;;;;;;;;;5091186;28;20051;-77
2022/12/31 11:42:35;;;;;;;0.63;0.63;;;;;;;;;;5082580;28;20116;-79
2022/12/31 11:45:37;;;;;;;0.45;0.40;;;;;;;;;;5091057;28;20101;-77
2022/12/31 11:48:21;;;;;;;1.55;0.43;;;;;;;;;;5080429;28;20052;-77
2022/12/31 11:51:08;;;;;;;2.72;0.80;;;;;;;;;;5083647;28;20522;-79
2022/12/31 11:53:46;;;;;;;0.75;0.75;;;;;;;;;;5074757;28;20462;-79
2022/12/31 11:56:21;;;;;;;0.98;0.40;;;;;;;;;;5066691;28;20059;-80
2022/12/31 11:58:53;;;;;;;1.55;0.50;;;;;;;;;;5091723;28;20067;-82
2022/12/31 12:01:38;;;;;;;1.13;0.40;;;;;;;;;;5080441;28;20084;-82
2022/12/31 12:04:07;;;;;;;0.30;0.28;;;;;;;;;;5079337;28;20044;-83
2022/12/31 12:06:33;;;;;;;0.60;0.40;;;;;;;;;;5060160;28;20085;-79
2022/12/31 12:09:06;;;;;;;1.45;0.28;;;;;;;;;;5092255;28;20044;-80
2022/12/31 12:11:36;;;;;;;0.50;0.30;;;;;;;;;;5058749;28;20432;-78
2022/12/31 12:14:37;;;;;;;0.20;0.20;;;;;;;;;;5077575;28;20127;-79
2022/12/31 12:17:09;;;;;;;0.30;0.22;;;;;;;;;;5076151;28;20127;-79
2022/12/31 12:19:42;;;;;;;0.45;0.30;;;;;;;;;;5077410;28;20389;-79
2022/12/31 12:22:19;;;;;;;0.60;0.40;;;;;;;;;;5064414;28;20350;-79
2022/12/31 12:24:54;;;;;;;1.30;0.60;;;;;;;;;;5084256;28;20480;-79
2022/12/31 12:27:30;;;;;;;0.77;0.40;;;;;;;;;;5096952;28;20056;-79
2022/12/31 12:29:56;;;;;;;0.25;0.20;;;;;;;;;;5076921;28;20135;-80
2022/12/31 12:32:25;;;;;;;0.85;0.47;;;;;;;;;;5092788;28;20091;-79
2022/12/31 12:34:53;;;;;;;0.50;0.30;;;;;;;;;;5073793;28;20465;-77
2022/12/31 12:37:23;;;;;;;0.43;0.20;;;;;;;;;;5070079;28;20109;-77
2022/12/31 12:40:10;;;;;;;0.50;0.45;;;;;;;;;;5107715;28;20482;-78
2022/12/31 12:42:48;;;;;;;0.85;0.47;;;;;;;;;;5087717;28;20138;-78
2022/12/31 12:45:21;;;;;;;0.40;0.22;;;;;;;;;;5059910;28;20528;-78
2022/12/31 12:47:49;;;;;;;0.60;0.35;;;;;;;;;;5089940;28;20558;-77
2022/12/31 12:50:21;;;;;;;1.85;0.60;;;;;;;;;;5057753;28;20052;-78
2022/12/31 12:53:01;;;;;;;0.52;0.50;;;;;;;;;;5066138;28;20048;-77
2022/12/31 12:55:40;;;;;;;0.80;0.52;;;;;;;;;;5077718;28;20446;-79
2022/12/31 12:58:20;;;;;;;0.77;0.40;;;;;;;;;;5090408;28;20048;-77
2022/12/31 13:00:56;;;;;;;0.30;0.30;;;;;;;;;;5087554;28;20052;-78
2022/12/31 13:03:31;;;;;;;0.82;0.40;;;;;;;;;;5072960;28;20523;-80
2022/12/31 13:06:07;;;;;;;1.95;0.55;;;;;;;;;;5090062;28;20058;-77
2022/12/31 13:08:42;;;;;;;1.05;0.30;;;;;;;;;;5080072;28;20416;-76
2022/12/31 13:11:20;;;;;;;0.60;0.40;;;;;;;;;;5093320;28;20051;-81
2022/12/31 13:13:50;;;;;;;1.50;0.80;;;;;;;;;;5088188;28;20052;-80
2022/12/31 13:16:18;;;;;;;2.05;1.55;;;;;;;;;;5089820;28;20056;-80
2022/12/31 13:18:54;;;;;;;2.45;1.90;;;;;;;;;;5096370;28;20056;-80
2022/12/31 13:21:30;;;;;;;0.85;0.60;;;;;;;;;;5072283;28;20054;-81
2022/12/31 13:24:06;;;;;;;0.50;0.50;;;;;;;;;;5106324;28;20054;-79
2022/12/31 13:26:42;;;;;;;0.77;0.40;;;;;;;;;;5081572;28;20066;-80
2022/12/31 13:29:14;;;;;;;1.23;0.45;;;;;;;;;;5092444;28;20595;-79
2022/12/31 13:31:43;;;;;;;1.02;0.40;;;;;;;;;;5062250;28;20068;-79
2022/12/31 13:34:20;;;;;;;0.65;0.35;;;;;;;;;;5056143;28;20067;-83
2022/12/31 13:36:47;;;;;;;1.17;0.40;;;;;;;;;;5068578;28;20046;-78
2022/12/31 13:39:22;;;;;;;0.47;0.30;;;;;;;;;;5075304;28;20083;-78
2022/12/31 13:42:01;;;;;;;1.42;0.63;;;;;;;;;;5083762;28;20055;-78
2022/12/31 13:44:37;;;;;;;0.52;0.45;;;;;;;;;;5075589;28;20462;-78
2022/12/31 13:47:11;;;;;;;3.33;0.47;;;;;;;;;;5081747;28;20481;-78
2022/12/31 13:49:38;;;;;;;0.68;0.40;;;;;;;;;;5075940;28;20051;-80
2022/12/31 13:52:40;;;;;;;0.70;0.45;;;;;;;;;;5085787;28;20045;-80
2022/12/31 13:55:17;;;;;;;0.68;0.28;;;;;;;;;;5100174;28;20087;-80
2022/12/31 13:58:01;;;;;;;1.08;0.30;;;;;;;;;;5093705;28;20055;-80
2022/12/31 14:00:40;;;;;;;0.45;0.30;;;;;;;;;;5077533;28;20132;-78
2022/12/31 14:03:41;;;;;;;0.75;0.30;;;;;;;;;;5077800;28;20055;-79
2022/12/31 14:06:21;;;;;;;0.35;0.25;;;;;;;;;;5087400;28;20074;-81
2022/12/31 14:08:47;;;;;;;0.85;0.57;;;;;;;;;;5088554;28;20063;-81
2022/12/31 14:11:33;;;;;;;1.27;0.30;;;;;;;;;;5108749;28;20079;-80
2022/12/31 14:14:27;;;;;;;1.30;0.40;;;;;;;;;;5108075;28;20044;-82
2022/12/31 14:16:57;;;;;;;7.35;1.15;;;;;;;;;;5088736;28;20135;-80
2022/12/31 14:19:42;;;;;;;0.73;0.63;;;;;;;;;;5087195;28;20567;-83
2022/12/31 14:22:18;;;;;;;3.03;1.08;;;;;;;;;;5095022;28;20044;-81
2022/12/31 14:24:49;;;;;;;3.05;0.95;;;;;;;;;;5095518;28;20123;-83
2022/12/31 14:27:22;;;;;;;1.33;0.75;;;;;;;;;;5078856;28;20116;-80
2022/12/31 14:29:52;;;;;;;1.13;0.70;;;;;;;;;;5094682;28;20083;-82
2022/12/31 14:32:43;;;;;;;1.02;0.73;;;;;;;;;;5072906;28;20044;-81
2022/12/31 14:35:33;;;;;;;0.98;0.60;;;;;;;;;;5102420;28;20107;-81
2022/12/31 14:38:23;;;;;;;4.28;1.00;;;;;;;;;;5092367;28;20143;-83
2022/12/31 14:41:10;;;;;;;0.68;0.60;;;;;;;;;;5071251;28;20052;-83
2022/12/31 14:43:55;;;;;;;3.25;1.10;;;;;;;;;;5093833;28;20054;-83
2022/12/31 14:46:34;;;;;;;1.67;1.23;;;;;;;;;;5073806;28;20052;-83
2022/12/31 14:49:32;;;;;;;2.53;1.40;;;;;;;;;;5058888;28;20393;-84
2022/12/31 14:52:15;;;;;;;6.97;3.42;;;;;;;;;;5095795;28;20076;-80
2022/12/31 14:54:42;;;;;;;6.75;3.25;;;;;;;;;;5071516;28;20106;-84
2022/12/31 14:57:23;;;;;;;8.40;3.17;;;;;;;;;;5054379;28;20048;-82
2022/12/31 14:59:54;;;;;;;5.45;2.05;;;;;;;;;;5087440;28;20056;-80
2022/12/31 15:02:32;;;;;;;6.60;3.10;;;;;;;;;;5079409;28;20097;-80
2022/12/31 15:05:11;;;;;;;9.88;5.10;;;;;;;;;;5094171;28;20407;-80
2022/12/31 15:07:38;;;;;;;6.28;3.03;;;;;;;;;;5088681;28;20098;-80
2022/12/31 15:10:26;;;;;;;7.05;3.42;;;;;;;;;;5088641;28;20039;-78
2022/12/31 15:13:20;;;;;;;7.57;3.95;;;;;;;;;;5094269;28;20062;-80
2022/12/31 15:15:54;;;;;;;6.47;3.78;;;;;;;;;;5059883;28;20473;-79
2022/12/31 15:19:01;;;;;;;8.10;3.60;;;;;;;;;;5071077;28;20131;-79
2022/12/31 15:21:40;;;;;;;5.63;3.15;;;;;;;;;;5069353;28;20044;-79
2022/12/31 15:24:21;;;;;;;8.00;3.22;;;;;;;;;;5076129;28;20048;-78
2022/12/31 15:26:53;;;;;;;6.45;3.60;;;;;;;;;;5074288;28;20059;-79
2022/12/31 15:29:27;;;;;;;6.82;3.60;;;;;;;;;;5076076;28;20055;-79
2022/12/31 15:31:53;;;;;;;9.93;4.10;;;;;;;;;;5089793;28;20059;-80
2022/12/31 15:34:38;;;;;;;4.13;2.90;;;;;;;;;;5060227;28;20082;-79
2022/12/31 15:37:32;;;;;;;3.88;2.50;;;;;;;;;;5087893;28;20055;-80
2022/12/31 15:40:19;;;;;;;3.95;2.13;;;;;;;;;;5071894;28;20108;-78
2022/12/31 15:42:49;;;;;;;4.80;2.40;;;;;;;;;;5064696;28;20040;-79
2022/12/31 15:45:42;;;;;;;2.90;1.80;;;;;;;;;;5058148;28;20392;-79
2022/12/31 15:48:18;;;;;;;3.87;2.07;;;;;;;;;;5092553;28;20062;-79
2022/12/31 15:50:45;;;;;;;2.85;1.35;;;;;;;;;;5089269;28;20079;-79